sensor_id;sensor_type;location;lat;lon;timestamp;P1;durP1;ratioP1;P2;durP2;ratioP2
8716;SDS011;4395;48.554;8.820;2024-01-15T00:00:39;18.85;;;9.02;;
8716;SDS011;4395;48.554;8.820;2024-01-15T00:02:43;16.67;;;8.35;;
8716;SDS011;4395;48.554;8.820;2024-01-15T00:04:47;20.33;;;10.15;;
8716;SDS011;4395;48.554;8.820;2024-01-15T00:06:49;17.05;;;8.85;;
8716;SDS011;4395;48.554;8.820;2024-01-15T00:08:52;15.10;;;8.70;;
8716;SDS011;4395;48.554;8.820;2024-01-15T00:10:55;15.60;;;8.80;;
8716;SDS011;4395;48.554;8.820;2024-01-15T00:12:57;16.38;;;8.60;;
8716;SDS011;4395;48.554;8.820;2024-01-15T00:15:00;15.98;;;8.85;;
8716;SDS011;4395;48.554;8.820;2024-01-15T00:17:03;14.80;;;8.07;;
8716;SDS011;4395;48.554;8.820;2024-01-15T00:19:06;19.98;;;10.40;;
8716;SDS011;4395;48.554;8.820;2024-01-15T00:21:10;18.95;;;9.40;;
8716;SDS011;4395;48.554;8.820;2024-01-15T00:23:13;17.05;;;9.75;;
8716;SDS011;4395;48.554;8.820;2024-01-15T00:25:15;17.00;;;9.25;;
8716;SDS011;4395;48.554;8.820;2024-01-15T00:27:19;14.10;;;8.48;;
8716;SDS011;4395;48.554;8.820;2024-01-15T00:29:20;13.90;;;8.00;;
8716;SDS011;4395;48.554;8.820;2024-01-15T00:31:23;18.35;;;9.55;;
8716;SDS011;4395;48.554;8.820;2024-01-15T00:33:25;18.42;;;9.10;;
8716;SDS011;4395;48.554;8.820;2024-01-15T00:35:28;18.75;;;11.07;;
8716;SDS011;4395;48.554;8.820;2024-01-15T00:37:33;20.75;;;10.60;;
8716;SDS011;4395;48.554;8.820;2024-01-15T00:39:36;19.92;;;10.15;;
8716;SDS011;4395;48.554;8.820;2024-01-15T00:41:38;22.00;;;11.77;;
8716;SDS011;4395;48.554;8.820;2024-01-15T00:43:40;20.48;;;10.63;;
8716;SDS011;4395;48.554;8.820;2024-01-15T00:45:43;16.50;;;10.15;;
8716;SDS011;4395;48.554;8.820;2024-01-15T00:47:46;18.75;;;10.40;;
8716;SDS011;4395;48.554;8.820;2024-01-15T00:49:48;16.33;;;9.07;;
8716;SDS011;4395;48.554;8.820;2024-01-15T00:51:51;14.77;;;8.63;;
8716;SDS011;4395;48.554;8.820;2024-01-15T00:53:55;21.92;;;12.60;;
8716;SDS011;4395;48.554;8.820;2024-01-15T00:55:58;17.38;;;9.85;;
8716;SDS011;4395;48.554;8.820;2024-01-15T00:58:01;13.38;;;8.20;;
8716;SDS011;4395;48.554;8.820;2024-01-15T01:00:04;15.65;;;7.95;;
8716;SDS011;4395;48.554;8.820;2024-01-15T01:02:07;13.88;;;7.72;;
8716;SDS011;4395;48.554;8.820;2024-01-15T01:04:10;14.30;;;8.27;;
8716;SDS011;4395;48.554;8.820;2024-01-15T01:06:13;15.50;;;8.57;;
8716;SDS011;4395;48.554;8.820;2024-01-15T01:08:16;14.38;;;7.95;;
8716;SDS011;4395;48.554;8.820;2024-01-15T01:10:20;13.50;;;7.93;;
8716;SDS011;4395;48.554;8.820;2024-01-15T01:12:23;15.38;;;8.30;;
8716;SDS011;4395;48.554;8.820;2024-01-15T01:14:26;14.73;;;8.23;;
8716;SDS011;4395;48.554;8.820;2024-01-15T01:16:29;16.08;;;7.90;;
8716;SDS011;4395;48.554;8.820;2024-01-15T01:18:32;14.35;;;7.93;;
8716;SDS011;4395;48.554;8.820;2024-01-15T01:20:34;12.57;;;7.32;;
8716;SDS011;4395;48.554;8.820;2024-01-15T01:22:39;12.13;;;7.28;;
8716;SDS011;4395;48.554;8.820;2024-01-15T01:24:41;13.02;;;7.70;;
8716;SDS011;4395;48.554;8.820;2024-01-15T01:26:46;12.63;;;7.20;;
8716;SDS011;4395;48.554;8.820;2024-01-15T01:28:48;12.77;;;6.97;;
8716;SDS011;4395;48.554;8.820;2024-01-15T01:30:51;10.45;;;6.47;;
8716;SDS011;4395;48.554;8.820;2024-01-15T01:32:54;13.55;;;7.15;;
8716;SDS011;4395;48.554;8.820;2024-01-15T01:34:57;11.52;;;6.32;;
8716;SDS011;4395;48.554;8.820;2024-01-15T01:36:59;11.02;;;6.22;;
8716;SDS011;4395;48.554;8.820;2024-01-15T01:39:02;12.63;;;6.88;;
8716;SDS011;4395;48.554;8.820;2024-01-15T01:41:05;14.00;;;7.20;;
8716;SDS011;4395;48.554;8.820;2024-01-15T01:43:09;13.85;;;7.45;;
8716;SDS011;4395;48.554;8.820;2024-01-15T01:45:12;13.60;;;7.38;;
8716;SDS011;4395;48.554;8.820;2024-01-15T01:47:15;15.07;;;7.57;;
8716;SDS011;4395;48.554;8.820;2024-01-15T01:49:17;12.40;;;6.82;;
8716;SDS011;4395;48.554;8.820;2024-01-15T01:51:21;12.07;;;7.13;;
8716;SDS011;4395;48.554;8.820;2024-01-15T01:53:25;12.20;;;6.60;;
8716;SDS011;4395;48.554;8.820;2024-01-15T01:55:29;14.13;;;7.38;;
8716;SDS011;4395;48.554;8.820;2024-01-15T01:57:34;14.93;;;7.97;;
8716;SDS011;4395;48.554;8.820;2024-01-15T01:59:39;16.30;;;7.40;;
8716;SDS011;4395;48.554;8.820;2024-01-15T02:01:42;14.82;;;7.53;;
8716;SDS011;4395;48.554;8.820;2024-01-15T02:03:47;16.45;;;8.30;;
8716;SDS011;4395;48.554;8.820;2024-01-15T02:05:50;13.57;;;7.13;;
8716;SDS011;4395;48.554;8.820;2024-01-15T02:07:54;13.45;;;7.68;;
8716;SDS011;4395;48.554;8.820;2024-01-15T02:09:57;13.90;;;6.97;;
8716;SDS011;4395;48.554;8.820;2024-01-15T02:11:59;16.23;;;8.90;;
8716;SDS011;4395;48.554;8.820;2024-01-15T02:14:03;16.08;;;8.15;;
8716;SDS011;4395;48.554;8.820;2024-01-15T02:16:07;16.77;;;7.40;;
8716;SDS011;4395;48.554;8.820;2024-01-15T02:18:10;14.90;;;7.68;;
8716;SDS011;4395;48.554;8.820;2024-01-15T02:20:12;13.20;;;7.13;;
8716;SDS011;4395;48.554;8.820;2024-01-15T02:22:14;14.38;;;7.57;;
8716;SDS011;4395;48.554;8.820;2024-01-15T02:24:19;15.50;;;8.20;;
8716;SDS011;4395;48.554;8.820;2024-01-15T02:26:21;13.38;;;7.78;;
8716;SDS011;4395;48.554;8.820;2024-01-15T02:28:25;14.80;;;8.13;;
8716;SDS011;4395;48.554;8.820;2024-01-15T02:30:28;12.95;;;7.32;;
8716;SDS011;4395;48.554;8.820;2024-01-15T02:32:32;17.13;;;8.30;;
8716;SDS011;4395;48.554;8.820;2024-01-15T02:34:35;12.20;;;7.15;;
8716;SDS011;4395;48.554;8.820;2024-01-15T02:36:37;14.07;;;7.03;;
8716;SDS011;4395;48.554;8.820;2024-01-15T02:38:41;14.95;;;7.43;;
8716;SDS011;4395;48.554;8.820;2024-01-15T02:40:45;19.77;;;8.95;;
8716;SDS011;4395;48.554;8.820;2024-01-15T02:42:48;13.82;;;7.35;;
8716;SDS011;4395;48.554;8.820;2024-01-15T02:44:51;16.50;;;8.55;;
8716;SDS011;4395;48.554;8.820;2024-01-15T02:46:53;16.08;;;8.50;;
8716;SDS011;4395;48.554;8.820;2024-01-15T02:48:56;18.95;;;10.18;;
8716;SDS011;4395;48.554;8.820;2024-01-15T02:50:59;19.30;;;9.40;;
8716;SDS011;4395;48.554;8.820;2024-01-15T02:53:02;20.08;;;9.63;;
8716;SDS011;4395;48.554;8.820;2024-01-15T02:55:05;22.20;;;12.00;;
8716;SDS011;4395;48.554;8.820;2024-01-15T02:57:10;15.52;;;9.15;;
8716;SDS011;4395;48.554;8.820;2024-01-15T02:59:19;17.92;;;10.18;;
8716;SDS011;4395;48.554;8.820;2024-01-15T03:01:22;19.30;;;10.60;;
8716;SDS011;4395;48.554;8.820;2024-01-15T03:03:25;21.45;;;10.00;;
8716;SDS011;4395;48.554;8.820;2024-01-15T03:05:28;18.02;;;9.30;;
8716;SDS011;4395;48.554;8.820;2024-01-15T03:07:30;19.52;;;10.30;;
8716;SDS011;4395;48.554;8.820;2024-01-15T03:09:33;17.48;;;8.98;;
8716;SDS011;4395;48.554;8.820;2024-01-15T03:11:39;13.77;;;7.78;;
8716;SDS011;4395;48.554;8.820;2024-01-15T03:13:43;19.65;;;10.45;;
8716;SDS011;4395;48.554;8.820;2024-01-15T03:15:46;18.88;;;8.55;;
8716;SDS011;4395;48.554;8.820;2024-01-15T03:17:49;17.60;;;8.88;;
8716;SDS011;4395;48.554;8.820;2024-01-15T03:19:51;19.15;;;9.55;;
8716;SDS011;4395;48.554;8.820;2024-01-15T03:21:53;15.93;;;9.15;;
8716;SDS011;4395;48.554;8.820;2024-01-15T03:23:56;20.10;;;10.52;;
8716;SDS011;4395;48.554;8.820;2024-01-15T03:26:00;20.27;;;9.90;;
8716;SDS011;4395;48.554;8.820;2024-01-15T03:28:02;20.40;;;9.95;;
8716;SDS011;4395;48.554;8.820;2024-01-15T03:30:07;19.48;;;9.70;;
8716;SDS011;4395;48.554;8.820;2024-01-15T03:32:10;18.63;;;9.82;;
8716;SDS011;4395;48.554;8.820;2024-01-15T03:34:13;19.58;;;10.82;;
8716;SDS011;4395;48.554;8.820;2024-01-15T03:36:15;20.63;;;10.32;;
8716;SDS011;4395;48.554;8.820;2024-01-15T03:38:18;20.92;;;11.15;;
8716;SDS011;4395;48.554;8.820;2024-01-15T03:40:20;19.77;;;10.38;;
8716;SDS011;4395;48.554;8.820;2024-01-15T03:42:24;17.83;;;9.50;;
8716;SDS011;4395;48.554;8.820;2024-01-15T03:44:26;17.65;;;8.95;;
8716;SDS011;4395;48.554;8.820;2024-01-15T03:46:31;21.75;;;10.68;;
8716;SDS011;4395;48.554;8.820;2024-01-15T03:48:33;18.83;;;9.93;;
8716;SDS011;4395;48.554;8.820;2024-01-15T03:50:36;22.65;;;10.35;;
8716;SDS011;4395;48.554;8.820;2024-01-15T03:52:39;21.23;;;9.90;;
8716;SDS011;4395;48.554;8.820;2024-01-15T03:54:42;18.85;;;10.13;;
8716;SDS011;4395;48.554;8.820;2024-01-15T03:56:45;19.13;;;10.05;;
8716;SDS011;4395;48.554;8.820;2024-01-15T03:58:46;17.13;;;7.95;;
8716;SDS011;4395;48.554;8.820;2024-01-15T04:00:49;23.13;;;10.50;;
8716;SDS011;4395;48.554;8.820;2024-01-15T04:02:53;20.35;;;9.60;;
8716;SDS011;4395;48.554;8.820;2024-01-15T04:04:56;17.75;;;9.30;;
8716;SDS011;4395;48.554;8.820;2024-01-15T04:06:58;19.70;;;9.63;;
8716;SDS011;4395;48.554;8.820;2024-01-15T04:09:01;18.70;;;9.00;;
8716;SDS011;4395;48.554;8.820;2024-01-15T04:11:04;17.20;;;7.40;;
8716;SDS011;4395;48.554;8.820;2024-01-15T04:13:07;19.58;;;10.10;;
8716;SDS011;4395;48.554;8.820;2024-01-15T04:15:09;18.00;;;9.15;;
8716;SDS011;4395;48.554;8.820;2024-01-15T04:17:12;16.48;;;8.40;;
8716;SDS011;4395;48.554;8.820;2024-01-15T04:19:16;16.23;;;9.25;;
8716;SDS011;4395;48.554;8.820;2024-01-15T04:21:19;16.42;;;8.77;;
8716;SDS011;4395;48.554;8.820;2024-01-15T04:23:21;19.85;;;9.77;;
8716;SDS011;4395;48.554;8.820;2024-01-15T04:25:24;19.05;;;9.88;;
8716;SDS011;4395;48.554;8.820;2024-01-15T04:27:27;18.77;;;9.63;;
8716;SDS011;4395;48.554;8.820;2024-01-15T04:29:30;18.17;;;9.27;;
8716;SDS011;4395;48.554;8.820;2024-01-15T04:31:32;19.25;;;10.30;;
8716;SDS011;4395;48.554;8.820;2024-01-15T04:33:36;15.57;;;9.07;;
8716;SDS011;4395;48.554;8.820;2024-01-15T04:35:40;18.30;;;9.27;;
8716;SDS011;4395;48.554;8.820;2024-01-15T04:37:42;20.13;;;9.98;;
8716;SDS011;4395;48.554;8.820;2024-01-15T04:39:45;16.55;;;8.80;;
8716;SDS011;4395;48.554;8.820;2024-01-15T04:41:48;17.85;;;9.90;;
8716;SDS011;4395;48.554;8.820;2024-01-15T04:43:50;14.82;;;8.68;;
8716;SDS011;4395;48.554;8.820;2024-01-15T04:45:53;16.35;;;8.82;;
8716;SDS011;4395;48.554;8.820;2024-01-15T04:47:56;15.88;;;9.07;;
8716;SDS011;4395;48.554;8.820;2024-01-15T04:49:59;18.00;;;9.05;;
8716;SDS011;4395;48.554;8.820;2024-01-15T04:52:04;16.52;;;8.85;;
8716;SDS011;4395;48.554;8.820;2024-01-15T04:54:07;15.60;;;9.15;;
8716;SDS011;4395;48.554;8.820;2024-01-15T04:56:10;17.05;;;9.18;;
8716;SDS011;4395;48.554;8.820;2024-01-15T04:58:12;14.50;;;8.32;;
8716;SDS011;4395;48.554;8.820;2024-01-15T05:00:15;16.85;;;8.93;;
8716;SDS011;4395;48.554;8.820;2024-01-15T05:02:18;15.27;;;8.98;;
8716;SDS011;4395;48.554;8.820;2024-01-15T05:04:21;18.30;;;10.15;;
8716;SDS011;4395;48.554;8.820;2024-01-15T05:06:25;15.30;;;9.10;;
8716;SDS011;4395;48.554;8.820;2024-01-15T05:08:29;16.67;;;10.65;;
8716;SDS011;4395;48.554;8.820;2024-01-15T05:10:31;17.55;;;9.35;;
8716;SDS011;4395;48.554;8.820;2024-01-15T05:12:34;13.63;;;8.43;;
8716;SDS011;4395;48.554;8.820;2024-01-15T05:14:37;15.00;;;8.65;;
8716;SDS011;4395;48.554;8.820;2024-01-15T05:16:40;13.70;;;7.80;;
8716;SDS011;4395;48.554;8.820;2024-01-15T05:18:48;15.73;;;8.85;;
8716;SDS011;4395;48.554;8.820;2024-01-15T05:20:51;16.27;;;9.18;;
8716;SDS011;4395;48.554;8.820;2024-01-15T05:22:54;15.70;;;9.65;;
8716;SDS011;4395;48.554;8.820;2024-01-15T05:24:58;18.40;;;9.00;;
8716;SDS011;4395;48.554;8.820;2024-01-15T05:27:01;18.10;;;9.60;;
8716;SDS011;4395;48.554;8.820;2024-01-15T05:29:04;14.13;;;9.20;;
8716;SDS011;4395;48.554;8.820;2024-01-15T05:31:05;16.73;;;9.68;;
8716;SDS011;4395;48.554;8.820;2024-01-15T05:33:08;18.73;;;10.45;;
8716;SDS011;4395;48.554;8.820;2024-01-15T05:35:11;17.02;;;9.43;;
8716;SDS011;4395;48.554;8.820;2024-01-15T05:37:14;16.77;;;9.65;;
8716;SDS011;4395;48.554;8.820;2024-01-15T05:39:17;17.85;;;9.65;;
8716;SDS011;4395;48.554;8.820;2024-01-15T05:41:24;18.75;;;10.18;;
8716;SDS011;4395;48.554;8.820;2024-01-15T05:43:26;15.68;;;10.02;;
8716;SDS011;4395;48.554;8.820;2024-01-15T05:45:30;17.33;;;9.70;;
8716;SDS011;4395;48.554;8.820;2024-01-15T05:47:33;17.02;;;10.43;;
8716;SDS011;4395;48.554;8.820;2024-01-15T05:49:36;16.92;;;9.45;;
8716;SDS011;4395;48.554;8.820;2024-01-15T05:51:38;16.63;;;9.32;;
8716;SDS011;4395;48.554;8.820;2024-01-15T05:53:40;17.65;;;10.02;;
8716;SDS011;4395;48.554;8.820;2024-01-15T05:55:45;17.58;;;10.32;;
8716;SDS011;4395;48.554;8.820;2024-01-15T05:57:49;19.00;;;9.63;;
8716;SDS011;4395;48.554;8.820;2024-01-15T05:59:51;15.48;;;9.38;;
8716;SDS011;4395;48.554;8.820;2024-01-15T06:01:54;18.42;;;10.00;;
8716;SDS011;4395;48.554;8.820;2024-01-15T06:03:57;16.35;;;9.23;;
8716;SDS011;4395;48.554;8.820;2024-01-15T06:06:00;16.88;;;9.68;;
8716;SDS011;4395;48.554;8.820;2024-01-15T06:08:04;14.43;;;9.35;;
8716;SDS011;4395;48.554;8.820;2024-01-15T06:10:07;17.90;;;9.82;;
8716;SDS011;4395;48.554;8.820;2024-01-15T06:12:09;18.30;;;9.82;;
8716;SDS011;4395;48.554;8.820;2024-01-15T06:14:13;18.33;;;9.98;;
8716;SDS011;4395;48.554;8.820;2024-01-15T06:16:15;15.95;;;9.00;;
8716;SDS011;4395;48.554;8.820;2024-01-15T06:18:20;15.43;;;9.30;;
8716;SDS011;4395;48.554;8.820;2024-01-15T06:20:23;15.10;;;9.25;;
8716;SDS011;4395;48.554;8.820;2024-01-15T06:22:26;15.80;;;9.27;;
8716;SDS011;4395;48.554;8.820;2024-01-15T06:24:28;15.55;;;10.02;;
8716;SDS011;4395;48.554;8.820;2024-01-15T06:26:31;13.85;;;8.73;;
8716;SDS011;4395;48.554;8.820;2024-01-15T06:28:34;14.60;;;8.93;;
8716;SDS011;4395;48.554;8.820;2024-01-15T06:30:38;15.68;;;8.27;;
8716;SDS011;4395;48.554;8.820;2024-01-15T06:32:41;12.98;;;8.68;;
8716;SDS011;4395;48.554;8.820;2024-01-15T06:34:44;15.52;;;9.18;;
8716;SDS011;4395;48.554;8.820;2024-01-15T06:36:46;15.52;;;8.23;;
8716;SDS011;4395;48.554;8.820;2024-01-15T06:38:49;13.07;;;8.63;;
8716;SDS011;4395;48.554;8.820;2024-01-15T06:40:50;15.57;;;8.95;;
8716;SDS011;4395;48.554;8.820;2024-01-15T06:42:54;15.73;;;8.27;;
8716;SDS011;4395;48.554;8.820;2024-01-15T06:44:57;14.75;;;8.48;;
8716;SDS011;4395;48.554;8.820;2024-01-15T06:47:01;13.65;;;8.05;;
8716;SDS011;4395;48.554;8.820;2024-01-15T06:49:04;11.70;;;7.60;;
8716;SDS011;4395;48.554;8.820;2024-01-15T06:51:07;12.88;;;8.65;;
8716;SDS011;4395;48.554;8.820;2024-01-15T06:53:09;14.90;;;8.40;;
8716;SDS011;4395;48.554;8.820;2024-01-15T06:55:12;15.30;;;8.70;;
8716;SDS011;4395;48.554;8.820;2024-01-15T06:57:14;14.32;;;8.52;;
8716;SDS011;4395;48.554;8.820;2024-01-15T06:59:16;14.05;;;7.78;;
8716;SDS011;4395;48.554;8.820;2024-01-15T07:01:20;15.75;;;8.57;;
8716;SDS011;4395;48.554;8.820;2024-01-15T07:03:25;16.33;;;8.35;;
8716;SDS011;4395;48.554;8.820;2024-01-15T07:05:27;14.07;;;8.65;;
8716;SDS011;4395;48.554;8.820;2024-01-15T07:07:31;14.10;;;8.90;;
8716;SDS011;4395;48.554;8.820;2024-01-15T07:09:34;16.60;;;9.15;;
8716;SDS011;4395;48.554;8.820;2024-01-15T07:11:37;13.68;;;8.27;;
8716;SDS011;4395;48.554;8.820;2024-01-15T07:13:39;11.50;;;7.47;;
8716;SDS011;4395;48.554;8.820;2024-01-15T07:15:42;14.48;;;7.70;;
8716;SDS011;4395;48.554;8.820;2024-01-15T07:17:45;15.50;;;8.13;;
8716;SDS011;4395;48.554;8.820;2024-01-15T07:19:48;15.45;;;8.65;;
8716;SDS011;4395;48.554;8.820;2024-01-15T07:21:51;16.65;;;9.10;;
8716;SDS011;4395;48.554;8.820;2024-01-15T07:23:57;13.02;;;8.43;;
8716;SDS011;4395;48.554;8.820;2024-01-15T07:26:00;15.52;;;8.32;;
8716;SDS011;4395;48.554;8.820;2024-01-15T07:28:02;13.70;;;8.57;;
8716;SDS011;4395;48.554;8.820;2024-01-15T07:30:06;13.07;;;7.95;;
8716;SDS011;4395;48.554;8.820;2024-01-15T07:32:10;14.00;;;7.95;;
8716;SDS011;4395;48.554;8.820;2024-01-15T07:34:13;13.30;;;7.90;;
8716;SDS011;4395;48.554;8.820;2024-01-15T07:36:17;16.88;;;8.68;;
8716;SDS011;4395;48.554;8.820;2024-01-15T07:38:20;15.07;;;8.70;;
8716;SDS011;4395;48.554;8.820;2024-01-15T07:40:24;14.88;;;8.48;;
8716;SDS011;4395;48.554;8.820;2024-01-15T07:42:27;12.43;;;7.55;;
8716;SDS011;4395;48.554;8.820;2024-01-15T07:44:29;13.95;;;7.75;;
8716;SDS011;4395;48.554;8.820;2024-01-15T07:46:32;14.20;;;7.40;;
8716;SDS011;4395;48.554;8.820;2024-01-15T07:48:35;14.88;;;7.55;;
8716;SDS011;4395;48.554;8.820;2024-01-15T07:50:38;12.18;;;7.30;;
8716;SDS011;4395;48.554;8.820;2024-01-15T07:52:42;10.43;;;6.50;;
8716;SDS011;4395;48.554;8.820;2024-01-15T07:54:44;9.43;;;6.22;;
8716;SDS011;4395;48.554;8.820;2024-01-15T07:56:53;10.60;;;6.22;;
8716;SDS011;4395;48.554;8.820;2024-01-15T07:58:56;11.60;;;6.07;;
8716;SDS011;4395;48.554;8.820;2024-01-15T08:00:59;11.98;;;5.53;;
8716;SDS011;4395;48.554;8.820;2024-01-15T08:03:02;13.05;;;6.97;;
8716;SDS011;4395;48.554;8.820;2024-01-15T08:05:05;13.23;;;7.03;;
8716;SDS011;4395;48.554;8.820;2024-01-15T08:07:08;9.88;;;6.43;;
8716;SDS011;4395;48.554;8.820;2024-01-15T08:09:12;11.30;;;7.38;;
8716;SDS011;4395;48.554;8.820;2024-01-15T08:11:15;11.35;;;6.47;;
8716;SDS011;4395;48.554;8.820;2024-01-15T08:13:18;11.05;;;6.53;;
8716;SDS011;4395;48.554;8.820;2024-01-15T08:15:21;10.63;;;6.13;;
8716;SDS011;4395;48.554;8.820;2024-01-15T08:17:25;11.13;;;5.45;;
8716;SDS011;4395;48.554;8.820;2024-01-15T08:19:29;10.27;;;5.97;;
8716;SDS011;4395;48.554;8.820;2024-01-15T08:21:33;10.80;;;5.88;;
8716;SDS011;4395;48.554;8.820;2024-01-15T08:23:36;8.02;;;5.03;;
8716;SDS011;4395;48.554;8.820;2024-01-15T08:25:40;11.30;;;6.20;;
8716;SDS011;4395;48.554;8.820;2024-01-15T08:27:42;9.52;;;6.22;;
8716;SDS011;4395;48.554;8.820;2024-01-15T08:29:44;9.57;;;5.47;;
8716;SDS011;4395;48.554;8.820;2024-01-15T08:31:47;9.35;;;5.63;;
8716;SDS011;4395;48.554;8.820;2024-01-15T08:33:51;11.13;;;6.10;;
8716;SDS011;4395;48.554;8.820;2024-01-15T08:35:54;9.65;;;5.88;;
8716;SDS011;4395;48.554;8.820;2024-01-15T08:37:57;12.85;;;6.93;;
8716;SDS011;4395;48.554;8.820;2024-01-15T08:39:59;9.32;;;5.47;;
8716;SDS011;4395;48.554;8.820;2024-01-15T08:42:04;8.55;;;5.38;;
8716;SDS011;4395;48.554;8.820;2024-01-15T08:44:07;10.98;;;5.93;;
8716;SDS011;4395;48.554;8.820;2024-01-15T08:46:10;11.63;;;5.38;;
8716;SDS011;4395;48.554;8.820;2024-01-15T08:48:12;9.23;;;5.63;;
8716;SDS011;4395;48.554;8.820;2024-01-15T08:50:14;8.27;;;5.55;;
8716;SDS011;4395;48.554;8.820;2024-01-15T08:52:17;9.95;;;5.80;;
8716;SDS011;4395;48.554;8.820;2024-01-15T08:54:21;9.90;;;6.10;;
8716;SDS011;4395;48.554;8.820;2024-01-15T08:56:24;11.38;;;6.63;;
8716;SDS011;4395;48.554;8.820;2024-01-15T08:58:27;9.95;;;5.07;;
8716;SDS011;4395;48.554;8.820;2024-01-15T09:00:30;8.48;;;5.45;;
8716;SDS011;4395;48.554;8.820;2024-01-15T09:02:32;10.48;;;5.75;;
8716;SDS011;4395;48.554;8.820;2024-01-15T09:04:35;7.63;;;4.85;;
8716;SDS011;4395;48.554;8.820;2024-01-15T09:06:38;9.05;;;5.68;;
8716;SDS011;4395;48.554;8.820;2024-01-15T09:08:41;7.93;;;4.82;;
8716;SDS011;4395;48.554;8.820;2024-01-15T09:10:43;7.80;;;5.45;;
8716;SDS011;4395;48.554;8.820;2024-01-15T09:12:47;8.35;;;5.30;;
8716;SDS011;4395;48.554;8.820;2024-01-15T09:14:52;9.90;;;5.93;;
8716;SDS011;4395;48.554;8.820;2024-01-15T09:16:55;9.00;;;4.90;;
8716;SDS011;4395;48.554;8.820;2024-01-15T09:18:58;9.85;;;6.15;;
8716;SDS011;4395;48.554;8.820;2024-01-15T09:21:01;8.55;;;5.80;;
8716;SDS011;4395;48.554;8.820;2024-01-15T09:23:06;9.05;;;5.05;;
8716;SDS011;4395;48.554;8.820;2024-01-15T09:25:09;7.25;;;4.40;;
8716;SDS011;4395;48.554;8.820;2024-01-15T09:27:12;9.77;;;6.47;;
8716;SDS011;4395;48.554;8.820;2024-01-15T09:29:14;12.18;;;5.72;;
8716;SDS011;4395;48.554;8.820;2024-01-15T09:31:20;8.68;;;5.07;;
8716;SDS011;4395;48.554;8.820;2024-01-15T09:33:23;6.93;;;4.60;;
8716;SDS011;4395;48.554;8.820;2024-01-15T09:35:26;8.07;;;5.13;;
8716;SDS011;4395;48.554;8.820;2024-01-15T09:37:28;10.55;;;5.72;;
8716;SDS011;4395;48.554;8.820;2024-01-15T09:39:47;10.13;;;6.00;;
8716;SDS011;4395;48.554;8.820;2024-01-15T09:41:51;9.65;;;5.80;;
8716;SDS011;4395;48.554;8.820;2024-01-15T09:43:55;9.63;;;5.40;;
8716;SDS011;4395;48.554;8.820;2024-01-15T09:45:58;9.57;;;5.13;;
8716;SDS011;4395;48.554;8.820;2024-01-15T09:48:03;8.75;;;5.32;;
8716;SDS011;4395;48.554;8.820;2024-01-15T09:50:06;7.85;;;4.82;;
8716;SDS011;4395;48.554;8.820;2024-01-15T09:52:10;7.60;;;5.13;;
8716;SDS011;4395;48.554;8.820;2024-01-15T09:54:13;7.03;;;5.18;;
8716;SDS011;4395;48.554;8.820;2024-01-15T09:56:18;8.75;;;5.72;;
8716;SDS011;4395;48.554;8.820;2024-01-15T09:58:21;7.38;;;4.60;;
8716;SDS011;4395;48.554;8.820;2024-01-15T10:00:24;8.13;;;4.90;;
8716;SDS011;4395;48.554;8.820;2024-01-15T10:02:28;7.40;;;3.63;;
8716;SDS011;4395;48.554;8.820;2024-01-15T10:04:32;6.15;;;4.40;;
8716;SDS011;4395;48.554;8.820;2024-01-15T10:06:35;6.40;;;4.00;;
8716;SDS011;4395;48.554;8.820;2024-01-15T10:08:38;9.07;;;4.32;;
8716;SDS011;4395;48.554;8.820;2024-01-15T10:10:41;8.77;;;4.90;;
8716;SDS011;4395;48.554;8.820;2024-01-15T10:12:43;8.00;;;4.78;;
8716;SDS011;4395;48.554;8.820;2024-01-15T10:14:46;8.02;;;5.20;;
8716;SDS011;4395;48.554;8.820;2024-01-15T10:16:48;6.75;;;4.32;;
8716;SDS011;4395;48.554;8.820;2024-01-15T10:18:51;6.30;;;4.45;;
8716;SDS011;4395;48.554;8.820;2024-01-15T10:20:55;6.70;;;4.53;;
8716;SDS011;4395;48.554;8.820;2024-01-15T10:22:59;6.78;;;4.30;;
8716;SDS011;4395;48.554;8.820;2024-01-15T10:25:01;9.90;;;4.43;;
8716;SDS011;4395;48.554;8.820;2024-01-15T10:27:04;6.47;;;3.63;;
8716;SDS011;4395;48.554;8.820;2024-01-15T10:29:08;9.25;;;4.75;;
8716;SDS011;4395;48.554;8.820;2024-01-15T10:31:12;7.22;;;4.40;;
8716;SDS011;4395;48.554;8.820;2024-01-15T10:33:15;7.75;;;4.78;;
8716;SDS011;4395;48.554;8.820;2024-01-15T10:35:27;6.70;;;4.40;;
8716;SDS011;4395;48.554;8.820;2024-01-15T10:37:33;6.97;;;4.38;;
8716;SDS011;4395;48.554;8.820;2024-01-15T10:39:36;6.93;;;4.68;;
8716;SDS011;4395;48.554;8.820;2024-01-15T10:41:40;8.00;;;4.80;;
8716;SDS011;4395;48.554;8.820;2024-01-15T10:43:43;7.00;;;4.95;;
8716;SDS011;4395;48.554;8.820;2024-01-15T10:45:46;6.35;;;5.03;;
8716;SDS011;4395;48.554;8.820;2024-01-15T10:47:48;7.68;;;5.15;;
8716;SDS011;4395;48.554;8.820;2024-01-15T10:49:51;6.93;;;4.22;;
8716;SDS011;4395;48.554;8.820;2024-01-15T10:51:55;6.82;;;4.60;;
8716;SDS011;4395;48.554;8.820;2024-01-15T10:53:59;6.47;;;3.90;;
8716;SDS011;4395;48.554;8.820;2024-01-15T10:56:04;7.18;;;4.53;;
8716;SDS011;4395;48.554;8.820;2024-01-15T10:58:07;5.88;;;4.15;;
8716;SDS011;4395;48.554;8.820;2024-01-15T11:00:10;8.13;;;4.30;;
8716;SDS011;4395;48.554;8.820;2024-01-15T11:02:16;5.82;;;3.85;;
8716;SDS011;4395;48.554;8.820;2024-01-15T11:04:20;7.03;;;4.57;;
8716;SDS011;4395;48.554;8.820;2024-01-15T11:06:24;8.40;;;5.10;;
8716;SDS011;4395;48.554;8.820;2024-01-15T11:08:27;6.90;;;4.80;;
8716;SDS011;4395;48.554;8.820;2024-01-15T11:10:39;7.43;;;5.07;;
8716;SDS011;4395;48.554;8.820;2024-01-15T11:12:47;14.90;;;5.50;;
8716;SDS011;4395;48.554;8.820;2024-01-15T11:14:49;8.95;;;5.10;;
8716;SDS011;4395;48.554;8.820;2024-01-15T11:16:54;8.45;;;5.90;;
8716;SDS011;4395;48.554;8.820;2024-01-15T11:19:01;8.35;;;5.43;;
8716;SDS011;4395;48.554;8.820;2024-01-15T11:21:20;9.05;;;5.22;;
8716;SDS011;4395;48.554;8.820;2024-01-15T11:25:46;7.82;;;5.25;;
8716;SDS011;4395;48.554;8.820;2024-01-15T11:27:49;8.57;;;4.88;;
8716;SDS011;4395;48.554;8.820;2024-01-15T11:30:02;8.23;;;4.95;;
8716;SDS011;4395;48.554;8.820;2024-01-15T11:32:06;10.30;;;5.90;;
8716;SDS011;4395;48.554;8.820;2024-01-15T11:34:10;9.13;;;5.25;;
8716;SDS011;4395;48.554;8.820;2024-01-15T11:36:12;8.02;;;5.88;;
8716;SDS011;4395;48.554;8.820;2024-01-15T11:38:26;7.68;;;5.40;;
8716;SDS011;4395;48.554;8.820;2024-01-15T11:40:37;8.25;;;4.95;;
8716;SDS011;4395;48.554;8.820;2024-01-15T11:42:42;9.68;;;6.15;;
8716;SDS011;4395;48.554;8.820;2024-01-15T11:44:44;8.30;;;5.60;;
8716;SDS011;4395;48.554;8.820;2024-01-15T11:46:50;9.00;;;6.10;;
8716;SDS011;4395;48.554;8.820;2024-01-15T11:49:03;9.48;;;5.13;;
8716;SDS011;4395;48.554;8.820;2024-01-15T11:51:07;7.68;;;5.63;;
8716;SDS011;4395;48.554;8.820;2024-01-15T11:53:17;8.27;;;4.75;;
8716;SDS011;4395;48.554;8.820;2024-01-15T11:55:33;10.45;;;6.10;;
8716;SDS011;4395;48.554;8.820;2024-01-15T11:57:40;6.50;;;4.90;;
8716;SDS011;4395;48.554;8.820;2024-01-15T11:59:47;7.65;;;5.45;;
8716;SDS011;4395;48.554;8.820;2024-01-15T12:01:50;6.35;;;5.35;;
8716;SDS011;4395;48.554;8.820;2024-01-15T12:03:53;6.93;;;5.13;;
8716;SDS011;4395;48.554;8.820;2024-01-15T12:05:58;9.63;;;5.40;;
8716;SDS011;4395;48.554;8.820;2024-01-15T12:08:01;7.85;;;5.47;;
8716;SDS011;4395;48.554;8.820;2024-01-15T12:10:07;6.90;;;5.32;;
8716;SDS011;4395;48.554;8.820;2024-01-15T12:12:13;9.43;;;5.60;;
8716;SDS011;4395;48.554;8.820;2024-01-15T12:14:24;7.68;;;4.85;;
8716;SDS011;4395;48.554;8.820;2024-01-15T12:16:28;7.60;;;5.20;;
8716;SDS011;4395;48.554;8.820;2024-01-15T12:18:31;7.68;;;5.28;;
8716;SDS011;4395;48.554;8.820;2024-01-15T12:20:34;9.30;;;5.50;;
8716;SDS011;4395;48.554;8.820;2024-01-15T12:22:36;11.88;;;5.97;;
8716;SDS011;4395;48.554;8.820;2024-01-15T12:24:57;7.60;;;5.57;;
8716;SDS011;4395;48.554;8.820;2024-01-15T12:27:00;8.23;;;5.65;;
8716;SDS011;4395;48.554;8.820;2024-01-15T12:29:05;8.95;;;5.97;;
8716;SDS011;4395;48.554;8.820;2024-01-15T12:31:10;8.15;;;5.20;;
8716;SDS011;4395;48.554;8.820;2024-01-15T12:33:12;9.13;;;5.68;;
8716;SDS011;4395;48.554;8.820;2024-01-15T12:35:14;7.50;;;5.60;;
8716;SDS011;4395;48.554;8.820;2024-01-15T12:37:17;8.70;;;5.72;;
8716;SDS011;4395;48.554;8.820;2024-01-15T12:39:21;10.23;;;5.85;;
8716;SDS011;4395;48.554;8.820;2024-01-15T12:41:24;10.27;;;5.55;;